createdAt,value
2023-03-20T00:01:38.115Z,4.67
2023-03-20T00:04:11.138Z,4.28
2023-03-20T00:06:46.595Z,4.50
2023-03-20T00:09:17.963Z,4.55
2023-03-20T00:11:51.548Z,4.22
2023-03-20T00:14:24.542Z,4.50
2023-03-20T00:16:55.290Z,4.78
2023-03-20T00:19:29.583Z,5.05
2023-03-20T00:22:02.393Z,4.80
2023-03-20T00:24:33.025Z,5.10
2023-03-20T00:27:07.008Z,4.95
2023-03-20T00:29:37.745Z,5.08
2023-03-20T00:32:13.179Z,5.22
2023-03-20T00:34:44.128Z,5.47
2023-03-20T00:37:16.395Z,5.90
2023-03-20T00:39:48.597Z,5.45
2023-03-20T00:42:24.972Z,5.35
2023-03-20T00:44:59.688Z,5.50
2023-03-20T00:47:30.904Z,6.03
2023-03-20T00:50:08.011Z,6.17
2023-03-20T00:52:40.618Z,6.58
2023-03-20T00:55:14.670Z,6.37
2023-03-20T00:57:51.027Z,6.53
2023-03-20T01:00:31.830Z,7.10
2023-03-20T01:03:05.921Z,7.58
2023-03-20T01:05:37.074Z,7.22
2023-03-20T01:08:16.984Z,6.95
2023-03-20T01:10:50.550Z,7.05
2023-03-20T01:13:27.830Z,7.42
2023-03-20T01:16:01.105Z,6.67
2023-03-20T01:18:33.356Z,7.22
2023-03-20T01:21:06.220Z,7.70
2023-03-20T01:23:37.868Z,7.17
2023-03-20T01:26:23.855Z,8.13
2023-03-20T01:28:56.090Z,8.10
2023-03-20T01:31:27.403Z,7.60
2023-03-20T01:33:59.126Z,8.35
2023-03-20T01:36:31.183Z,7.80
2023-03-20T01:39:01.896Z,7.45
2023-03-20T01:41:33.516Z,8.15
2023-03-20T01:44:07.289Z,8.00
2023-03-20T01:46:40.935Z,8.03
2023-03-20T01:49:24.160Z,7.95
2023-03-20T01:51:59.289Z,7.70
2023-03-20T01:54:40.068Z,7.87
2023-03-20T01:57:26.058Z,7.70
2023-03-20T02:00:06.224Z,6.58
2023-03-20T02:02:41.118Z,7.47
2023-03-20T02:05:17.724Z,6.62
2023-03-20T02:07:53.768Z,7.12
2023-03-20T02:10:24.773Z,7.28
2023-03-20T02:12:56.480Z,6.72
2023-03-20T02:15:28.338Z,7.10
2023-03-20T02:17:59.926Z,6.87
2023-03-20T02:20:36.166Z,6.78
2023-03-20T02:23:17.703Z,6.30
2023-03-20T02:26:13.970Z,6.53
2023-03-20T02:29:03.854Z,7.08
2023-03-20T02:31:57.434Z,7.55
2023-03-20T02:34:48.925Z,6.58
2023-03-20T02:37:33.845Z,7.28
2023-03-20T02:40:16.941Z,6.72
2023-03-20T02:43:23.997Z,7.30
2023-03-20T02:46:09.515Z,7.58
2023-03-20T02:48:48.813Z,7.53
2023-03-20T02:51:42.231Z,7.03
2023-03-20T02:54:26.111Z,7.20
2023-03-20T02:57:20.670Z,7.30
2023-03-20T02:59:57.849Z,7.37
2023-03-20T03:02:41.688Z,7.40
2023-03-20T03:05:16.685Z,7.95
2023-03-20T03:07:49.927Z,7.05
2023-03-20T03:10:24.936Z,7.20
2023-03-20T03:12:58.460Z,7.33
2023-03-20T03:15:39.165Z,7.62
2023-03-20T03:18:15.265Z,7.83
2023-03-20T03:20:49.670Z,7.65
2023-03-20T03:23:44.069Z,8.05
2023-03-20T03:26:18.711Z,7.53
2023-03-20T03:28:53.561Z,7.60
2023-03-20T03:31:25.487Z,7.95
2023-03-20T03:33:58.364Z,8.25
2023-03-20T03:36:32.129Z,8.93
2023-03-20T03:39:27.720Z,8.43
2023-03-20T03:42:15.769Z,9.03
2023-03-20T03:45:17.349Z,8.33
2023-03-20T03:47:54.916Z,8.35
2023-03-20T03:50:37.020Z,7.97
2023-03-20T03:53:12.278Z,8.85
2023-03-20T03:55:50.448Z,8.43
2023-03-20T03:58:33.991Z,8.93
2023-03-20T04:01:08.107Z,8.63
2023-03-20T04:03:45.926Z,9.33
2023-03-20T04:06:18.730Z,8.60
2023-03-20T04:08:49.339Z,9.60
2023-03-20T04:11:24.706Z,8.85
2023-03-20T04:13:55.072Z,8.73
2023-03-20T04:16:28.021Z,9.23
2023-03-20T04:18:59.604Z,9.00
2023-03-20T04:21:31.748Z,8.33
2023-03-20T04:24:03.788Z,8.70
2023-03-20T04:26:34.520Z,9.00
2023-03-20T04:29:06.670Z,8.25
2023-03-20T04:31:39.264Z,8.58
2023-03-20T04:34:12.099Z,9.03
2023-03-20T04:36:42.690Z,8.50
2023-03-20T04:39:14.793Z,9.50
2023-03-20T04:41:48.532Z,8.80
2023-03-20T04:44:20.314Z,9.40
2023-03-20T04:46:51.186Z,9.53
2023-03-20T04:49:21.661Z,9.28
2023-03-20T04:51:54.158Z,9.28
2023-03-20T04:54:28.636Z,9.63
2023-03-20T04:57:00.136Z,10.05
2023-03-20T04:59:35.572Z,9.20
2023-03-20T05:02:06.180Z,9.35
2023-03-20T05:04:36.848Z,9.70
2023-03-20T05:07:07.602Z,9.30
2023-03-20T05:09:42.362Z,10.55
2023-03-20T05:12:12.740Z,10.25
2023-03-20T05:14:43.405Z,10.03
2023-03-20T05:17:14.277Z,10.40
2023-03-20T05:19:44.827Z,10.30
2023-03-20T05:22:15.996Z,10.50
2023-03-20T05:24:48.493Z,11.70
2023-03-20T05:27:20.230Z,10.93
2023-03-20T05:29:52.519Z,11.35
2023-03-20T05:32:23.080Z,11.78
2023-03-20T05:34:53.577Z,12.35
2023-03-20T05:37:24.278Z,12.55
2023-03-20T05:39:57.102Z,13.00
2023-03-20T05:42:29.095Z,12.10
2023-03-20T05:45:02.748Z,12.70
2023-03-20T05:47:37.350Z,13.48
2023-03-20T05:50:09.953Z,14.07
2023-03-20T05:52:42.741Z,13.68
2023-03-20T05:55:13.796Z,13.05
2023-03-20T05:57:45.734Z,13.72
2023-03-20T06:00:18.386Z,14.70
2023-03-20T06:02:50.446Z,15.48
2023-03-20T06:05:22.179Z,14.53
2023-03-20T06:07:54.111Z,15.08
2023-03-20T06:10:24.649Z,15.90
2023-03-20T06:12:56.696Z,16.40
2023-03-20T06:15:30.213Z,16.55
2023-03-20T06:18:02.980Z,16.93
2023-03-20T06:20:33.622Z,17.70
2023-03-20T06:23:10.709Z,17.45
2023-03-20T06:25:43.116Z,17.35
2023-03-20T06:28:15.666Z,19.00
2023-03-20T06:30:47.582Z,18.52
2023-03-20T06:33:19.932Z,19.90
2023-03-20T06:35:54.062Z,20.80
2023-03-20T06:38:27.668Z,21.05
2023-03-20T06:40:59.530Z,24.37
2023-03-20T06:43:30.736Z,21.33
2023-03-20T06:46:07.681Z,22.90
2023-03-20T06:48:38.237Z,21.90
2023-03-20T06:51:09.104Z,21.82
2023-03-20T06:53:44.401Z,23.50
2023-03-20T06:56:14.985Z,25.37
2023-03-20T06:58:46.642Z,24.93
2023-03-20T07:01:19.901Z,25.67
2023-03-20T07:03:53.538Z,25.90
2023-03-20T07:06:24.621Z,24.77
2023-03-20T07:08:56.761Z,25.67
2023-03-20T07:11:30.376Z,24.90
2023-03-20T07:14:02.474Z,24.20
2023-03-20T07:16:33.769Z,22.50
2023-03-20T07:19:06.307Z,23.87
2023-03-20T07:21:54.090Z,22.75
2023-03-20T07:24:24.723Z,21.33
2023-03-20T07:26:57.801Z,22.82
2023-03-20T07:29:29.330Z,23.23
2023-03-20T07:32:02.242Z,21.55
2023-03-20T07:34:32.815Z,23.43
2023-03-20T07:37:11.702Z,24.23
2023-03-20T07:39:43.090Z,22.63
2023-03-20T07:42:15.178Z,21.68
2023-03-20T07:44:48.298Z,21.23
2023-03-20T07:47:20.946Z,21.67
2023-03-20T07:49:53.183Z,20.92
2023-03-20T07:52:26.770Z,21.23
2023-03-20T07:55:00.861Z,21.77
2023-03-20T07:57:34.175Z,21.90
2023-03-20T08:00:09.961Z,20.05
2023-03-20T08:02:44.216Z,19.40
2023-03-20T08:05:19.819Z,19.93
2023-03-20T08:07:55.544Z,19.65
2023-03-20T08:10:27.970Z,20.05
2023-03-20T08:12:58.488Z,19.35
2023-03-20T08:15:31.936Z,19.40
2023-03-20T08:18:06.106Z,20.00
2023-03-20T08:20:36.733Z,19.02
2023-03-20T08:23:08.592Z,18.92
2023-03-20T08:25:40.961Z,18.95
2023-03-20T08:28:14.243Z,19.00
2023-03-20T08:30:46.705Z,18.67
2023-03-20T08:33:19.649Z,18.45
2023-03-20T08:35:58.281Z,18.00
2023-03-20T08:38:30.396Z,19.77
2023-03-20T08:41:02.769Z,17.90
2023-03-20T08:43:38.015Z,17.15
2023-03-20T08:46:10.108Z,17.70
2023-03-20T08:48:43.293Z,18.37
2023-03-20T08:51:18.381Z,16.82
2023-03-20T08:53:50.459Z,16.07
2023-03-20T08:56:21.701Z,15.83
2023-03-20T08:58:56.197Z,16.12
2023-03-20T09:01:41.766Z,14.80
2023-03-20T09:04:02.517Z,15.72
2023-03-20T09:06:34.378Z,15.80
2023-03-20T09:09:06.781Z,15.85
2023-03-20T09:11:40.593Z,14.45
2023-03-20T09:14:12.113Z,14.53
2023-03-20T09:16:44.415Z,15.25
2023-03-20T09:19:20.017Z,14.35
2023-03-20T09:21:54.214Z,13.70
2023-03-20T09:24:26.495Z,13.22
2023-03-20T09:27:03.687Z,12.78
2023-03-20T09:29:36.520Z,13.18
2023-03-20T09:32:09.908Z,13.53
2023-03-20T09:34:41.960Z,12.50
2023-03-20T09:37:12.480Z,13.62
2023-03-20T09:39:43.562Z,13.03
2023-03-20T09:42:46.225Z,12.60
2023-03-20T09:45:40.318Z,13.00
2023-03-20T09:48:20.293Z,12.35
2023-03-20T09:50:59.959Z,11.93
2023-03-20T09:53:39.351Z,12.47
2023-03-20T09:56:14.096Z,11.12
2023-03-20T09:58:47.616Z,11.90
2023-03-20T10:01:22.785Z,10.48
2023-03-20T10:04:04.487Z,10.30
2023-03-20T10:06:36.764Z,9.65
2023-03-20T10:09:25.876Z,10.03
2023-03-20T10:12:23.026Z,9.68
2023-03-20T10:15:21.083Z,9.15
2023-03-20T10:18:12.521Z,9.30
2023-03-20T10:21:06.886Z,9.03
2023-03-20T10:23:42.725Z,8.95
2023-03-20T10:26:19.275Z,8.48
2023-03-20T10:29:00.968Z,9.25
2023-03-20T10:31:52.457Z,8.75
2023-03-20T10:34:35.188Z,9.15
2023-03-20T10:37:20.651Z,8.90
2023-03-20T10:40:29.607Z,8.98
2023-03-20T10:43:08.923Z,8.48
2023-03-20T10:45:47.479Z,8.25
2023-03-20T10:48:31.571Z,8.20
2023-03-20T10:51:04.730Z,7.83
2023-03-20T10:53:39.488Z,7.62
2023-03-20T10:56:17.159Z,8.00
2023-03-20T10:58:53.536Z,7.60
2023-03-20T11:01:25.144Z,7.90
2023-03-20T11:03:56.384Z,7.35
2023-03-20T11:06:29.970Z,7.53
2023-03-20T11:09:06.288Z,7.90
2023-03-20T11:11:41.523Z,7.53
2023-03-20T11:14:21.127Z,6.83
2023-03-20T11:16:54.301Z,7.40
2023-03-20T11:19:28.333Z,7.22
2023-03-20T11:22:01.524Z,7.40
2023-03-20T11:24:47.222Z,6.95
2023-03-20T11:27:20.583Z,7.35
2023-03-20T11:29:52.552Z,7.12
2023-03-20T11:32:33.069Z,6.85
2023-03-20T11:35:26.165Z,7.08
2023-03-20T11:37:59.515Z,7.22
2023-03-20T11:40:34.869Z,8.58
2023-03-20T11:43:10.774Z,7.85
2023-03-20T11:45:46.627Z,7.03
2023-03-20T11:48:23.426Z,7.85
2023-03-20T11:51:06.506Z,7.33
2023-03-20T11:53:47.995Z,7.75
2023-03-20T11:56:27.201Z,7.97
2023-03-20T11:59:06.721Z,7.72
2023-03-20T12:01:53.931Z,7.85
2023-03-20T12:04:40.567Z,8.40
2023-03-20T12:07:21.441Z,8.25
2023-03-20T12:10:07.602Z,7.92
2023-03-20T12:12:48.315Z,7.90
2023-03-20T12:15:25.925Z,7.65
2023-03-20T12:18:02.537Z,8.30
2023-03-20T12:20:43.233Z,7.83
2023-03-20T12:23:28.925Z,8.23
2023-03-20T12:26:03.085Z,8.13
2023-03-20T12:28:49.081Z,8.78
2023-03-20T12:31:22.630Z,8.38
2023-03-20T12:34:04.826Z,8.48
2023-03-20T12:36:42.167Z,8.58
2023-03-20T12:39:25.266Z,8.08
2023-03-20T12:42:23.265Z,8.55
2023-03-20T12:45:11.798Z,8.98
2023-03-20T12:47:58.834Z,9.25
2023-03-20T12:50:40.058Z,10.10
2023-03-20T12:53:16.319Z,8.93
2023-03-20T12:55:59.516Z,9.23
2023-03-20T12:58:49.771Z,9.78
2023-03-20T13:01:24.827Z,9.45
2023-03-20T13:04:02.479Z,9.73
2023-03-20T13:06:41.816Z,9.45
2023-03-20T13:09:37.489Z,9.60
2023-03-20T13:12:17.157Z,9.98
2023-03-20T13:15:14.955Z,10.65
2023-03-20T13:17:56.698Z,10.10
2023-03-20T13:20:32.585Z,10.80
2023-03-20T13:23:25.498Z,10.00
2023-03-20T13:26:30.673Z,10.48
2023-03-20T13:29:23.509Z,11.03
2023-03-20T13:32:04.779Z,11.05
2023-03-20T13:34:59.682Z,10.80
2023-03-20T13:37:49.960Z,10.95
2023-03-20T13:40:29.558Z,10.48
2023-03-20T13:43:17.741Z,11.38
2023-03-20T13:45:54.973Z,11.80
2023-03-20T13:48:38.144Z,11.20
2023-03-20T13:51:24.167Z,11.00
2023-03-20T13:54:15.276Z,10.90
2023-03-20T13:57:26.566Z,11.10
2023-03-20T14:00:27.789Z,11.30
2023-03-20T14:03:15.483Z,11.20
2023-03-20T14:05:57.449Z,11.50
2023-03-20T14:08:36.998Z,10.82
2023-03-20T14:11:15.871Z,11.53
2023-03-20T14:13:56.818Z,11.43
2023-03-20T14:16:31.268Z,12.15
2023-03-20T14:19:17.992Z,11.65
2023-03-20T14:21:53.002Z,11.90
2023-03-20T14:24:32.744Z,12.43
2023-03-20T14:27:04.237Z,12.88
2023-03-20T14:29:39.866Z,12.07
2023-03-20T14:32:20.965Z,11.68
2023-03-20T14:34:55.059Z,11.57
2023-03-20T14:37:43.661Z,11.70
2023-03-20T14:40:29.498Z,11.97
2023-03-20T14:43:23.459Z,11.65
2023-03-20T14:46:04.453Z,12.30
2023-03-20T14:48:39.178Z,11.45
2023-03-20T14:51:25.443Z,12.47
2023-03-20T14:54:20.814Z,12.20
2023-03-20T14:56:53.782Z,12.00
2023-03-20T14:59:26.709Z,12.10
2023-03-20T15:02:05.380Z,12.10
2023-03-20T15:04:39.332Z,12.68
2023-03-20T15:07:18.079Z,12.55
2023-03-20T15:09:53.751Z,11.90
2023-03-20T15:12:33.498Z,12.68
2023-03-20T15:15:07.297Z,12.82
2023-03-20T15:17:44.201Z,12.35
2023-03-20T15:20:20.950Z,12.50
2023-03-20T15:22:57.056Z,12.63
2023-03-20T15:25:30.851Z,13.60
2023-03-20T15:28:04.045Z,12.95
2023-03-20T15:30:40.390Z,12.20
2023-03-20T15:33:22.877Z,11.95
2023-03-20T15:35:55.657Z,12.35
2023-03-20T15:38:29.246Z,14.35
2023-03-20T15:41:00.796Z,12.78
2023-03-20T15:43:35.970Z,12.80
2023-03-20T15:46:17.800Z,13.20
2023-03-20T15:48:43.479Z,12.47
2023-03-20T15:51:16.297Z,13.00
2023-03-20T15:53:50.060Z,13.22
2023-03-20T15:56:23.151Z,12.68
2023-03-20T15:58:56.356Z,11.83
2023-03-20T16:01:34.465Z,12.43
2023-03-20T16:04:07.112Z,12.28
2023-03-20T16:06:42.421Z,11.57
2023-03-20T16:09:16.125Z,11.38
2023-03-20T16:11:49.772Z,11.73
2023-03-20T16:14:31.132Z,12.15
2023-03-20T16:17:03.228Z,12.07
2023-03-20T16:19:35.798Z,12.47
2023-03-20T16:22:30.236Z,12.33
2023-03-20T16:25:09.263Z,12.20
2023-03-20T16:27:43.845Z,12.07
2023-03-20T16:30:20.769Z,12.13
2023-03-20T16:32:58.550Z,12.37
2023-03-20T16:35:40.756Z,12.20
2023-03-20T16:38:32.142Z,12.60
2023-03-20T16:41:22.312Z,12.95
2023-03-20T16:43:53.582Z,12.83
2023-03-20T16:46:29.971Z,12.40
2023-03-20T16:49:19.934Z,13.20
2023-03-20T16:51:51.021Z,12.80
2023-03-20T16:54:22.330Z,12.07
2023-03-20T16:56:55.214Z,12.70
2023-03-20T16:59:28.825Z,12.50
2023-03-20T17:02:05.579Z,13.32
2023-03-20T17:04:41.806Z,12.55
2023-03-20T17:07:19.321Z,12.15
2023-03-20T17:10:01.963Z,20.45
2023-03-20T17:12:35.486Z,13.48
2023-03-20T17:15:06.053Z,12.78
2023-03-20T17:17:39.966Z,13.03
2023-03-20T17:20:22.949Z,13.43
2023-03-20T17:22:54.880Z,13.15
2023-03-20T17:25:28.681Z,13.88
2023-03-20T17:28:00.791Z,14.20
2023-03-20T17:30:33.032Z,13.72
2023-03-20T17:33:05.524Z,13.60
2023-03-20T17:35:37.521Z,13.10
2023-03-20T17:38:14.635Z,14.28
2023-03-20T17:40:51.534Z,13.28
2023-03-20T17:43:22.663Z,14.63
2023-03-20T17:45:54.935Z,14.28
2023-03-20T17:48:27.086Z,14.00
2023-03-20T17:50:58.155Z,13.50
2023-03-20T17:53:30.941Z,13.48
2023-03-20T17:56:04.299Z,14.20
2023-03-20T17:58:36.473Z,13.08
2023-03-20T18:01:10.250Z,13.30
2023-03-20T18:03:43.574Z,14.85
2023-03-20T18:06:26.178Z,13.78
2023-03-20T18:08:59.994Z,14.35
2023-03-20T18:11:32.670Z,14.07
2023-03-20T18:14:03.218Z,13.85
2023-03-20T18:16:37.073Z,14.25
2023-03-20T18:19:07.745Z,13.65
2023-03-20T18:21:42.708Z,13.60
2023-03-20T18:24:14.479Z,13.25
2023-03-20T18:26:48.036Z,14.15
2023-03-20T18:29:21.726Z,14.05
2023-03-20T18:31:53.911Z,14.63
2023-03-20T18:34:27.947Z,14.23
2023-03-20T18:36:58.568Z,16.25
2023-03-20T18:39:31.945Z,14.53
2023-03-20T18:42:03.455Z,14.38
2023-03-20T18:44:35.358Z,13.25
2023-03-20T18:47:07.513Z,13.38
2023-03-20T18:49:39.695Z,13.45
2023-03-20T18:52:11.490Z,14.07
2023-03-20T18:54:44.186Z,13.75
2023-03-20T18:57:17.697Z,13.45
2023-03-20T18:59:51.741Z,13.72
2023-03-20T19:02:24.462Z,14.65
2023-03-20T19:04:59.115Z,13.65
2023-03-20T19:07:29.135Z,14.63
2023-03-20T19:09:59.769Z,13.43
2023-03-20T19:12:33.656Z,14.05
2023-03-20T19:15:05.121Z,14.18
2023-03-20T19:17:37.751Z,12.95
2023-03-20T19:20:11.507Z,14.23
2023-03-20T19:22:44.213Z,14.10
2023-03-20T19:25:16.896Z,14.20
2023-03-20T19:27:48.224Z,15.10
2023-03-20T19:30:27.692Z,14.80
2023-03-20T19:33:01.510Z,14.13
2023-03-20T19:35:58.726Z,14.00
2023-03-20T19:38:09.218Z,14.70
2023-03-20T19:40:43.539Z,14.47
2023-03-20T19:43:17.085Z,15.35
2023-03-20T19:45:55.984Z,13.85
2023-03-20T19:48:46.910Z,14.75
2023-03-20T19:51:10.185Z,14.68
2023-03-20T19:53:41.384Z,14.98
2023-03-20T19:56:15.490Z,14.87
2023-03-20T19:58:47.085Z,14.65
2023-03-20T20:01:25.528Z,15.30
2023-03-20T20:04:03.154Z,14.83
2023-03-20T20:06:39.759Z,15.03
2023-03-20T20:09:12.184Z,14.43
2023-03-20T20:11:44.484Z,14.05
2023-03-20T20:14:15.924Z,15.28
2023-03-20T20:16:48.507Z,16.30
2023-03-20T20:19:20.102Z,15.32
2023-03-20T20:24:38.394Z,15.23
2023-03-20T20:27:17.135Z,15.38
2023-03-20T20:29:49.474Z,14.68
2023-03-20T20:32:23.584Z,14.58
2023-03-20T20:38:28.239Z,13.43
2023-03-20T20:40:28.065Z,13.65
2023-03-20T20:43:11.026Z,12.00
2023-03-20T20:45:40.449Z,12.85
2023-03-20T20:48:12.761Z,13.63
2023-03-20T20:50:47.529Z,13.13
2023-03-20T20:53:18.749Z,12.78
2023-03-20T20:55:49.333Z,12.88
2023-03-20T20:58:20.277Z,12.68
2023-03-20T21:00:55.360Z,12.15
2023-03-20T21:03:29.708Z,12.15
2023-03-20T21:06:05.485Z,13.40
2023-03-20T21:08:36.773Z,12.13
2023-03-20T21:11:11.456Z,12.07
2023-03-20T21:13:45.540Z,12.10
2023-03-20T21:16:18.156Z,12.50
2023-03-20T21:18:50.281Z,12.63
2023-03-20T21:21:23.385Z,12.63
2023-03-20T21:23:55.823Z,11.85
2023-03-20T21:26:26.700Z,12.80
2023-03-20T21:28:57.533Z,12.30
2023-03-20T21:31:31.547Z,12.53
2023-03-20T21:34:03.914Z,12.33
2023-03-20T21:36:36.044Z,12.88
2023-03-20T21:39:09.588Z,12.10
2023-03-20T21:41:43.112Z,12.30
2023-03-20T21:44:21.852Z,12.30
2023-03-20T21:47:29.464Z,12.95
2023-03-20T21:50:23.155Z,12.98
2023-03-20T21:55:15.067Z,13.62
2023-03-20T22:00:31.821Z,15.25
2023-03-20T22:02:27.759Z,13.93
2023-03-20T22:08:03.355Z,13.03
2023-03-20T22:11:18.215Z,13.03
2023-03-20T22:13:35.163Z,13.68
2023-03-20T22:19:01.116Z,12.55
2023-03-20T22:21:29.565Z,12.25
2023-03-20T22:34:26.792Z,11.70
2023-03-20T22:36:54.131Z,11.30
2023-03-20T22:39:12.698Z,11.30
2023-03-20T22:46:45.267Z,10.72
2023-03-20T22:48:58.292Z,9.83
2023-03-20T22:51:36.842Z,11.60
2023-03-20T22:54:07.329Z,11.83
2023-03-20T22:56:40.560Z,11.10
2023-03-20T22:59:11.360Z,10.10
2023-03-20T23:01:43.220Z,10.48
2023-03-20T23:04:20.420Z,10.50
2023-03-20T23:07:11.770Z,11.45
2023-03-20T23:09:42.511Z,11.53
2023-03-20T23:12:17.064Z,10.80
2023-03-20T23:14:51.244Z,10.30
2023-03-20T23:17:23.684Z,10.80
2023-03-20T23:20:10.969Z,10.15
2023-03-20T23:22:35.185Z,10.85
2023-03-20T23:25:16.381Z,11.17
2023-03-20T23:27:44.153Z,11.53
2023-03-20T23:30:16.245Z,11.63
2023-03-20T23:32:47.635Z,11.50
2023-03-20T23:35:19.705Z,11.40
2023-03-20T23:37:56.511Z,12.10
2023-03-20T23:40:29.348Z,11.88
2023-03-20T23:43:05.666Z,11.33
2023-03-20T23:45:37.388Z,10.50
2023-03-20T23:48:11.003Z,10.30
2023-03-20T23:50:52.135Z,10.48
2023-03-20T23:53:20.593Z,10.30
2023-03-20T23:55:54.643Z,9.90
2023-03-20T23:58:27.492Z,10.40
